createdAt,value
2016-09-16T00:00:35.596Z,24.85
2016-09-16T00:01:35.605Z,25.04
2016-09-16T00:02:35.585Z,24.85
2016-09-16T00:03:35.580Z,24.76
2016-09-16T00:04:35.578Z,24.57
2016-09-16T00:05:35.579Z,24.38
2016-09-16T00:06:35.576Z,24.76
2016-09-16T00:07:35.563Z,24.66
2016-09-16T00:08:35.568Z,23.8
2016-09-16T00:09:35.557Z,24.19
2016-09-16T00:10:36.023Z,24.49
2016-09-16T00:11:35.552Z,24.58
2016-09-16T00:12:35.546Z,24.68
2016-09-16T00:13:35.535Z,24.96
2016-09-16T00:14:35.543Z,25.15
2016-09-16T00:15:35.522Z,24.49
2016-09-16T00:16:35.523Z,24.87
2016-09-16T00:17:35.516Z,25.35
2016-09-16T00:18:35.522Z,25.54
2016-09-16T00:19:35.507Z,26.11
2016-09-16T00:20:35.509Z,26.3
2016-09-16T00:21:35.505Z,26.4
2016-09-16T00:22:35.502Z,26.4
2016-09-16T00:23:35.492Z,26.4
2016-09-16T00:24:35.494Z,26.5
2016-09-16T00:25:35.486Z,27.36
2016-09-16T00:26:35.493Z,27.16
2016-09-16T00:27:35.478Z,27.16
2016-09-16T00:28:35.952Z,27.64
2016-09-16T00:29:35.941Z,27.36
2016-09-16T00:30:35.469Z,27.93
2016-09-16T00:31:35.464Z,27.93
2016-09-16T00:32:35.480Z,27.73
2016-09-16T00:33:35.984Z,27.93
2016-09-16T00:34:35.992Z,27.73
2016-09-16T00:35:35.456Z,27.55
2016-09-16T00:36:35.442Z,27.36
2016-09-16T00:37:35.821Z,28.22
2016-09-16T00:38:35.448Z,28.42
2016-09-16T00:39:35.428Z,29.57
2016-09-16T00:40:35.452Z,29.57
2016-09-16T00:41:35.428Z,30.15
2016-09-16T00:42:35.421Z,30.52
2016-09-16T00:43:35.410Z,30.52
2016-09-16T00:44:35.421Z,30.72
2016-09-16T00:45:35.405Z,30.52
2016-09-16T00:46:35.405Z,30.81
2016-09-16T00:47:35.396Z,29.57
2016-09-16T00:48:35.832Z,29.76
2016-09-16T00:49:35.385Z,29.38
2016-09-16T00:50:35.394Z,29.57
2016-09-16T00:51:35.387Z,29.86
2016-09-16T00:52:35.386Z,30.33
2016-09-16T00:53:35.374Z,30.43
2016-09-16T00:54:35.376Z,29.76
2016-09-16T00:55:35.360Z,30.62
2016-09-16T00:56:35.361Z,31.1
2016-09-16T00:57:35.359Z,30.24
2016-09-16T00:58:35.423Z,29.76
2016-09-16T00:59:35.349Z,29.95
2016-09-16T01:00:35.356Z,29.66
2016-09-16T01:01:35.763Z,29.47
2016-09-16T01:02:35.346Z,29.38
2016-09-16T01:03:35.336Z,29.57
2016-09-16T01:04:35.536Z,29.66
2016-09-16T01:05:35.746Z,30.33
2016-09-16T01:06:35.339Z,30.91
2016-09-16T01:07:35.315Z,30.62
2016-09-16T01:08:35.314Z,30.62
2016-09-16T01:09:35.320Z,30.43
2016-09-16T01:10:35.326Z,30.81
2016-09-16T01:11:35.305Z,30.62
2016-09-16T01:12:35.301Z,29.76
2016-09-16T01:13:35.296Z,29.86
2016-09-16T01:14:35.290Z,29.38
2016-09-16T01:15:35.299Z,29.47
2016-09-16T01:16:35.297Z,28.98
2016-09-16T01:17:35.282Z,28.69
2016-09-16T01:18:35.282Z,28.02
2016-09-16T01:19:35.288Z,27.64
2016-09-16T01:20:35.283Z,27.36
2016-09-16T01:21:35.584Z,26.59
2016-09-16T01:22:35.274Z,26.11
2016-09-16T01:23:35.255Z,25.25
2016-09-16T01:24:35.282Z,24.77
2016-09-16T01:25:35.269Z,24.1
2016-09-16T01:26:35.251Z,22.76
2016-09-16T01:27:35.256Z,21.14
2016-09-16T01:28:35.237Z,20.09
2016-09-16T01:29:35.241Z,19.13
2016-09-16T01:30:35.241Z,18.65
2016-09-16T01:31:35.438Z,17.98
2016-09-16T01:32:35.227Z,17.5
2016-09-16T01:33:35.229Z,17.41
2016-09-16T01:34:35.214Z,16.74
2016-09-16T01:35:35.209Z,16.64
2016-09-16T01:36:35.209Z,16.55
2016-09-16T01:37:35.214Z,16.16
2016-09-16T01:38:35.193Z,16.64
2016-09-16T01:39:35.198Z,16.55
2016-09-16T01:40:35.201Z,16.82
2016-09-16T01:41:35.181Z,17.5
2016-09-16T01:42:35.208Z,16.83
2016-09-16T01:43:35.178Z,16.26
2016-09-16T01:44:38.204Z,16.74
2016-09-16T01:45:35.184Z,16.55
2016-09-16T01:46:35.189Z,16.74
2016-09-16T01:47:35.155Z,16.35
2016-09-16T01:48:35.153Z,15.77
2016-09-16T01:49:35.157Z,15.3
2016-09-16T01:50:35.153Z,15.3
2016-09-16T01:51:35.148Z,14.73
2016-09-16T01:52:35.142Z,14.63
2016-09-16T01:53:35.135Z,13.86
2016-09-16T01:54:35.138Z,13.57
2016-09-16T01:55:35.132Z,12.81
2016-09-16T01:56:35.122Z,12.43
2016-09-16T01:57:35.123Z,11.57
2016-09-16T01:58:35.123Z,11.38
2016-09-16T01:59:35.113Z,10.52
2016-09-16T02:00:35.117Z,10.52
2016-09-16T02:01:35.099Z,9.75
2016-09-16T02:02:35.096Z,9.75
2016-09-16T02:03:35.099Z,9.56
2016-09-16T02:04:35.099Z,9.84
2016-09-16T02:05:35.102Z,9.27
2016-09-16T02:06:35.087Z,9.75
2016-09-16T02:07:35.082Z,9.08
2016-09-16T02:08:35.272Z,9.08
2016-09-16T02:09:35.067Z,8.6
2016-09-16T02:10:35.418Z,8.12
2016-09-16T02:11:35.258Z,8.7
2016-09-16T02:12:35.061Z,8.89
2016-09-16T02:13:35.048Z,8.7
2016-09-16T02:14:35.043Z,8.7
2016-09-16T02:15:35.039Z,8.7
2016-09-16T02:16:35.042Z,8.31
2016-09-16T02:17:35.036Z,8.31
2016-09-16T02:18:35.050Z,7.93
2016-09-16T02:19:35.037Z,7.93
2016-09-16T02:20:35.026Z,7.93
2016-09-16T02:21:35.018Z,7.45
2016-09-16T02:22:35.008Z,7.07
2016-09-16T02:23:35.002Z,6.98
2016-09-16T02:24:34.993Z,6.59
2016-09-16T02:25:35.001Z,6.4
2016-09-16T02:26:35.000Z,6.5
2016-09-16T02:27:35.010Z,5.83
2016-09-16T02:28:34.992Z,5.93
2016-09-16T02:29:34.983Z,5.73
2016-09-16T02:30:34.985Z,5.35
2016-09-16T02:31:34.980Z,5.16
2016-09-16T02:32:34.971Z,5.16
2016-09-16T02:33:34.962Z,5.35
2016-09-16T02:34:34.963Z,5.44
2016-09-16T02:35:34.977Z,5.54
2016-09-16T02:36:34.956Z,4.78
2016-09-16T02:37:34.946Z,4.3
2016-09-16T02:38:34.952Z,4.01
2016-09-16T02:39:34.927Z,4.3
2016-09-16T02:40:34.929Z,3.72
2016-09-16T02:41:34.924Z,3.82
2016-09-16T02:42:34.919Z,3.92
2016-09-16T02:43:34.946Z,3.92
2016-09-16T02:44:34.919Z,3.63
2016-09-16T02:45:34.906Z,3.63
2016-09-16T02:46:35.223Z,3.72
2016-09-16T02:47:35.097Z,3.92
2016-09-16T02:48:34.899Z,3.53
2016-09-16T02:49:34.895Z,3.25
2016-09-16T02:50:34.888Z,3.44
2016-09-16T02:51:34.876Z,3.72
2016-09-16T02:52:34.902Z,3.63
2016-09-16T02:53:34.866Z,4.11
2016-09-16T02:54:34.877Z,4.3
2016-09-16T02:55:34.865Z,4.87
2016-09-16T02:56:34.874Z,4.58
2016-09-16T02:57:34.851Z,3.82
2016-09-16T02:58:34.853Z,3.25
2016-09-16T02:59:34.868Z,3.63
2016-09-16T03:00:34.844Z,3.63
2016-09-16T03:01:34.852Z,4.01
2016-09-16T03:02:34.843Z,3.92
2016-09-16T03:03:34.827Z,3.25
2016-09-16T03:04:34.827Z,3.44
2016-09-16T03:05:34.836Z,2.48
2016-09-16T03:06:34.810Z,2.48
2016-09-16T03:07:34.815Z,3.53
2016-09-16T03:08:34.813Z,4.01
2016-09-16T03:09:34.799Z,4.58
2016-09-16T03:10:34.804Z,5.64
2016-09-16T03:11:34.788Z,6.88
2016-09-16T03:12:34.783Z,7.65
2016-09-16T03:13:34.788Z,7.93
2016-09-16T03:14:34.777Z,8.22
2016-09-16T03:15:34.783Z,8.12
2016-09-16T03:16:34.772Z,8.22
2016-09-16T03:17:34.763Z,9.37
2016-09-16T03:18:34.759Z,10.23
2016-09-16T03:19:34.761Z,11.47
2016-09-16T03:20:34.750Z,12.52
2016-09-16T03:21:34.747Z,13.01
2016-09-16T03:22:34.751Z,14.63
2016-09-16T03:23:34.740Z,15.49
2016-09-16T03:24:34.733Z,16.55
2016-09-16T03:25:34.732Z,17.02
2016-09-16T03:26:34.722Z,17.5
2016-09-16T03:27:34.724Z,17.69
2016-09-16T03:28:34.713Z,17.98
2016-09-16T03:29:34.718Z,18.07
2016-09-16T03:30:34.714Z,17.98
2016-09-16T03:31:34.715Z,18.07
2016-09-16T03:32:34.703Z,18.07
2016-09-16T03:33:34.691Z,18.45
2016-09-16T03:34:34.697Z,17.97
2016-09-16T03:35:34.688Z,17.88
2016-09-16T03:36:34.699Z,17.88
2016-09-16T03:37:34.693Z,16.82
2016-09-16T03:38:34.694Z,16.06
2016-09-16T03:39:34.672Z,15.67
2016-09-16T03:40:34.990Z,15.96
2016-09-16T03:41:34.662Z,16.06
2016-09-16T03:42:34.651Z,16.16
2016-09-16T03:43:34.647Z,15.77
2016-09-16T03:44:34.967Z,15.39
2016-09-16T03:45:34.641Z,15.58
2016-09-16T03:46:34.646Z,14.91
2016-09-16T03:47:34.958Z,13.86
2016-09-16T03:48:34.953Z,13.67
2016-09-16T03:49:34.626Z,13.86
2016-09-16T03:50:34.632Z,13.57
2016-09-16T03:51:34.616Z,13.28
2016-09-16T03:52:34.623Z,12.33
2016-09-16T03:53:34.603Z,12.04
2016-09-16T03:54:34.607Z,12.43
2016-09-16T03:55:34.605Z,12.52
2016-09-16T03:56:34.596Z,12.62
2016-09-16T03:57:34.598Z,13.48
2016-09-16T03:58:34.586Z,13.76
2016-09-16T03:59:34.579Z,13.76
2016-09-16T04:00:34.578Z,13.48
2016-09-16T04:01:34.563Z,13.19
2016-09-16T04:02:34.569Z,12.81
2016-09-16T04:03:34.564Z,12.24
2016-09-16T04:04:34.564Z,12.04
2016-09-16T04:05:34.885Z,10.8
2016-09-16T04:06:34.542Z,9.84
2016-09-16T04:07:34.540Z,8.8
2016-09-16T04:08:34.533Z,7.74
2016-09-16T04:09:34.533Z,7.45
2016-09-16T04:10:34.529Z,7.26
2016-09-16T04:11:34.524Z,6.79
2016-09-16T04:12:34.521Z,6.79
2016-09-16T04:13:34.520Z,7.26
2016-09-16T04:14:34.520Z,7.36
2016-09-16T04:15:34.515Z,7.07
2016-09-16T04:16:34.504Z,7.26
2016-09-16T04:17:34.497Z,6.4
2016-09-16T04:18:34.493Z,5.83
2016-09-16T04:19:34.496Z,5.64
2016-09-16T04:20:34.493Z,5.54
2016-09-16T04:21:34.499Z,4.87
2016-09-16T04:22:34.479Z,4.78
2016-09-16T04:23:34.481Z,4.3
2016-09-16T04:24:34.790Z,3.92
2016-09-16T04:25:34.468Z,3.15
2016-09-16T04:26:34.783Z,2.39
2016-09-16T04:27:34.452Z,3.15
2016-09-16T04:28:34.453Z,2.86
2016-09-16T04:29:34.449Z,2.86
2016-09-16T04:30:34.448Z,2.67
2016-09-16T04:31:34.439Z,2.96
2016-09-16T04:32:34.770Z,2.96
2016-09-16T04:33:34.422Z,2.48
2016-09-16T04:34:34.439Z,2.1
2016-09-16T04:35:34.418Z,1.62
2016-09-16T04:36:34.421Z,1.05
2016-09-16T04:37:34.409Z,0.57
2016-09-16T04:38:34.421Z,0.19
2016-09-16T04:39:34.400Z,0
2016-09-16T04:40:34.399Z,0
2016-09-16T04:41:34.387Z,0
2016-09-16T04:42:34.387Z,0
2016-09-16T04:43:34.380Z,0
2016-09-16T04:44:34.380Z,0
2016-09-16T04:45:34.368Z,0
2016-09-16T04:46:34.365Z,0
2016-09-16T04:47:34.362Z,0
2016-09-16T04:48:34.378Z,0
2016-09-16T04:49:34.353Z,0
2016-09-16T04:50:34.349Z,0
2016-09-16T04:51:34.348Z,0
2016-09-16T04:52:34.342Z,0
2016-09-16T04:53:34.335Z,0
2016-09-16T04:54:34.342Z,0
2016-09-16T04:55:34.326Z,0
2016-09-16T04:56:34.326Z,0
2016-09-16T04:57:34.326Z,0
2016-09-16T04:58:34.316Z,0
2016-09-16T04:59:34.316Z,0
2016-09-16T05:00:34.308Z,0
2016-09-16T05:01:34.302Z,0
2016-09-16T05:02:34.292Z,0
2016-09-16T05:03:34.285Z,0
2016-09-16T05:04:34.295Z,0
2016-09-16T05:05:34.298Z,0
2016-09-16T05:06:34.289Z,0
2016-09-16T05:07:34.280Z,0
2016-09-16T05:08:34.279Z,0
2016-09-16T05:09:34.281Z,0
2016-09-16T05:10:34.261Z,0
2016-09-16T05:11:34.263Z,0
2016-09-16T05:12:34.257Z,0
2016-09-16T05:13:34.246Z,0
2016-09-16T05:14:34.263Z,0
2016-09-16T05:15:34.254Z,0
2016-09-16T05:16:34.230Z,0
2016-09-16T05:17:34.545Z,0
2016-09-16T05:18:34.240Z,0
2016-09-16T05:19:34.240Z,0
2016-09-16T05:20:34.221Z,0
2016-09-16T05:21:34.214Z,0
2016-09-16T05:22:34.204Z,0
2016-09-16T05:23:34.219Z,0
2016-09-16T05:24:34.524Z,0
2016-09-16T05:25:34.513Z,0
2016-09-16T05:26:34.203Z,0
2016-09-16T05:27:34.192Z,0
2016-09-16T05:28:34.185Z,0
2016-09-16T05:29:34.181Z,0
2016-09-16T05:30:34.173Z,0
2016-09-16T05:31:34.190Z,0
2016-09-16T05:32:34.179Z,0
2016-09-16T05:33:34.173Z,0
2016-09-16T05:34:34.160Z,0
2016-09-16T05:35:34.158Z,0
2016-09-16T05:36:34.145Z,0
2016-09-16T05:37:34.149Z,0
2016-09-16T05:38:34.130Z,0
2016-09-16T05:39:34.124Z,0
2016-09-16T05:40:34.135Z,0
2016-09-16T05:41:34.125Z,0
2016-09-16T05:42:34.115Z,0
2016-09-16T05:43:34.110Z,0
2016-09-16T05:44:34.117Z,0
2016-09-16T05:45:34.428Z,0
2016-09-16T05:46:34.422Z,0
2016-09-16T05:47:34.098Z,0
2016-09-16T05:48:34.087Z,0
2016-09-16T05:49:34.091Z,0
2016-09-16T05:50:34.089Z,0
2016-09-16T05:51:34.125Z,0
2016-09-16T05:52:34.075Z,0
2016-09-16T05:53:34.072Z,0
2016-09-16T05:54:34.059Z,0
2016-09-16T05:55:34.060Z,0
2016-09-16T05:56:34.058Z,0
2016-09-16T05:57:34.058Z,0
2016-09-16T05:58:34.055Z,0
2016-09-16T05:59:34.041Z,0
2016-09-16T06:00:34.043Z,0
2016-09-16T06:01:34.025Z,0
2016-09-16T06:02:34.025Z,0
2016-09-16T06:03:34.025Z,0
2016-09-16T06:04:34.026Z,0
2016-09-16T06:05:34.019Z,0
2016-09-16T06:06:34.014Z,0
2016-09-16T06:07:34.011Z,0
2016-09-16T06:08:33.995Z,0
2016-09-16T06:09:34.006Z,0
2016-09-16T06:10:33.992Z,0
2016-09-16T06:11:33.988Z,0
2016-09-16T06:12:33.982Z,0
2016-09-16T06:13:33.975Z,0
2016-09-16T06:14:33.978Z,0
2016-09-16T06:15:33.975Z,0
2016-09-16T06:16:33.979Z,0
2016-09-16T06:17:33.982Z,0
2016-09-16T06:18:33.988Z,0
2016-09-16T06:19:33.953Z,0
2016-09-16T06:20:33.955Z,0
2016-09-16T06:21:33.956Z,0
2016-09-16T06:22:33.940Z,0
2016-09-16T06:23:33.937Z,0
2016-09-16T06:24:33.940Z,0
2016-09-16T06:25:33.969Z,0
2016-09-16T06:26:33.936Z,0
2016-09-16T06:27:33.949Z,0
2016-09-16T06:28:33.928Z,0
2016-09-16T06:29:33.914Z,0
2016-09-16T06:30:33.912Z,0
2016-09-16T06:31:33.905Z,0
2016-09-16T06:32:34.219Z,0
2016-09-16T06:33:33.905Z,0
2016-09-16T06:34:33.891Z,0
2016-09-16T06:35:33.890Z,0
2016-09-16T06:36:33.897Z,0
2016-09-16T06:37:33.899Z,0
2016-09-16T06:38:33.884Z,0
2016-09-16T06:39:33.879Z,0
2016-09-16T06:40:33.876Z,0
2016-09-16T06:41:33.882Z,0
2016-09-16T06:42:33.866Z,0
2016-09-16T06:43:33.869Z,0.19
2016-09-16T06:44:33.862Z,1.62
2016-09-16T06:45:33.858Z,2.01
2016-09-16T06:46:33.854Z,2.68
2016-09-16T06:47:33.857Z,3.74
2016-09-16T06:48:33.840Z,5.46
2016-09-16T06:49:33.843Z,6.61
2016-09-16T06:50:33.839Z,7.76
2016-09-16T06:51:33.843Z,10.35
2016-09-16T06:52:33.835Z,13.8
2016-09-16T06:53:33.836Z,16.86
2016-09-16T06:54:33.821Z,18.11
2016-09-16T06:55:33.830Z,20.98
2016-09-16T06:56:33.818Z,24.16
2016-09-16T06:57:33.816Z,25.7
2016-09-16T06:58:33.822Z,27.04
2016-09-16T06:59:33.812Z,27.14
2016-09-16T07:00:33.815Z,27.33
2016-09-16T07:01:33.803Z,27.23
2016-09-16T07:02:33.811Z,27.42
2016-09-16T07:03:33.806Z,27.23
2016-09-16T07:04:33.792Z,27.81
2016-09-16T07:05:33.802Z,27.81
2016-09-16T07:06:33.792Z,26.18
2016-09-16T07:07:33.794Z,25.12
2016-09-16T07:08:33.790Z,26.75
2016-09-16T07:09:33.787Z,30.87
2016-09-16T07:10:33.790Z,32.98
2016-09-16T07:11:33.773Z,34.23
2016-09-16T07:12:33.774Z,36.16
2016-09-16T07:13:33.783Z,37.89
2016-09-16T07:14:33.763Z,40.48
2016-09-16T07:15:33.773Z,42.21
2016-09-16T07:16:33.756Z,43.36
2016-09-16T07:17:33.767Z,42.88
2016-09-16T07:18:33.763Z,43.17
2016-09-16T07:19:33.754Z,42.21
2016-09-16T07:20:33.756Z,42.3
2016-09-16T07:21:33.748Z,43.17
2016-09-16T07:22:33.744Z,42.71
2016-09-16T07:23:33.754Z,42.81
2016-09-16T07:24:33.746Z,43.19
2016-09-16T07:25:33.742Z,42.71
2016-09-16T07:26:33.821Z,43.48
2016-09-16T07:27:33.760Z,44.82
2016-09-16T07:28:33.731Z,45.11
2016-09-16T07:29:33.731Z,47.13
2016-09-16T07:30:33.737Z,50.2
2016-09-16T07:31:33.731Z,53.46
2016-09-16T07:32:33.734Z,54.9
2016-09-16T07:33:33.730Z,56.92
2016-09-16T07:34:33.729Z,58.2
2016-09-16T07:35:33.726Z,57.81
2016-09-16T07:36:33.762Z,58.96
2016-09-16T07:37:33.725Z,58.1
2016-09-16T07:38:33.723Z,58.48
2016-09-16T07:39:33.709Z,61.08
2016-09-16T07:40:33.717Z,63.96
2016-09-16T07:41:33.709Z,66.64
2016-09-16T07:42:33.703Z,68.79
2016-09-16T07:43:33.737Z,69.66
2016-09-16T07:44:33.705Z,71.87
2016-09-16T07:45:33.700Z,72.64
2016-09-16T07:46:33.696Z,75.52
2016-09-16T07:47:33.697Z,76.67
2016-09-16T07:48:33.699Z,77.48
2016-09-16T07:49:33.698Z,78.34
2016-09-16T07:50:33.697Z,78.44
2016-09-16T07:51:33.688Z,76.23
2016-09-16T07:52:33.692Z,77.58
2016-09-16T07:53:33.686Z,80.46
2016-09-16T07:54:33.683Z,82.76
2016-09-16T07:55:33.685Z,84.73
2016-09-16T07:56:33.686Z,86.18
2016-09-16T07:57:33.999Z,82.52
2016-09-16T07:58:33.678Z,83.77
2016-09-16T07:59:33.676Z,87.52
2016-09-16T08:00:33.673Z,89.15
2016-09-16T08:01:33.679Z,89.68
2016-09-16T08:02:33.689Z,90.93
2016-09-16T08:03:33.677Z,91.31
2016-09-16T08:04:33.698Z,92.38
2016-09-16T08:05:33.999Z,93.05
2016-09-16T08:06:33.678Z,92.85
2016-09-16T08:07:33.663Z,93.72
2016-09-16T08:08:33.671Z,93.72
2016-09-16T08:09:33.681Z,94.97
2016-09-16T08:10:33.671Z,94.4
2016-09-16T08:11:33.666Z,90.26
2016-09-16T08:12:33.668Z,88.71
2016-09-16T08:13:33.660Z,90.3
2016-09-16T08:14:33.677Z,93.29
2016-09-16T08:15:33.672Z,94.34
2016-09-16T08:16:33.665Z,95.98
2016-09-16T08:17:33.663Z,98.1
2016-09-16T08:18:33.673Z,98.92
2016-09-16T08:19:33.653Z,97.76
2016-09-16T08:20:33.662Z,93.96
2016-09-16T08:21:33.985Z,94.64
2016-09-16T08:22:33.657Z,95.79
2016-09-16T08:23:33.655Z,96.08
2016-09-16T08:24:33.657Z,97.04
2016-09-16T08:25:33.660Z,98.58
2016-09-16T08:26:33.649Z,99.54
2016-09-16T08:27:33.656Z,99.99
2016-09-16T08:28:33.668Z,99.99
2016-09-16T08:29:33.664Z,99.99
2016-09-16T08:30:33.664Z,99.99
2016-09-16T08:31:33.660Z,99.99
2016-09-16T08:32:33.654Z,99.99
2016-09-16T08:33:33.648Z,99.99
2016-09-16T08:34:33.651Z,99.99
2016-09-16T08:35:33.649Z,99.99
2016-09-16T08:36:33.657Z,99.99
2016-09-16T08:37:33.653Z,99.99
2016-09-16T08:38:33.663Z,99.99
2016-09-16T08:39:33.648Z,99.99
2016-09-16T08:40:33.651Z,99.99
2016-09-16T08:41:33.657Z,99.99
2016-09-16T08:42:33.657Z,99.99
2016-09-16T08:43:33.661Z,99.99
2016-09-16T08:44:33.646Z,99.99
2016-09-16T08:45:33.651Z,99.99
2016-09-16T08:46:33.642Z,99.99
2016-09-16T08:47:33.648Z,99.99
2016-09-16T08:48:33.652Z,99.99
2016-09-16T08:49:33.644Z,99.99
2016-09-16T08:50:33.653Z,99.99
2016-09-16T08:51:33.645Z,99.99
2016-09-16T08:52:33.665Z,99.99
2016-09-16T08:53:33.651Z,99.99
2016-09-16T08:54:33.641Z,99.99
2016-09-16T08:55:33.649Z,99.99
2016-09-16T08:56:33.659Z,99.99
2016-09-16T08:57:33.638Z,99.99
2016-09-16T08:58:33.640Z,99.99
2016-09-16T08:59:33.644Z,99.99
2016-09-16T09:00:33.647Z,99.99
2016-09-16T09:01:33.651Z,99.99
2016-09-16T09:02:33.651Z,99.99
2016-09-16T09:03:33.638Z,99.99
2016-09-16T09:04:33.656Z,99.99
2016-09-16T09:05:33.642Z,99.99
2016-09-16T09:06:33.665Z,99.99
2016-09-16T09:07:33.645Z,99.99
2016-09-16T09:08:33.640Z,99.99
2016-09-16T09:09:33.645Z,99.99
2016-09-16T09:10:34.042Z,99.99
2016-09-16T09:11:33.649Z,99.99
2016-09-16T09:12:33.641Z,99.99
2016-09-16T09:13:33.648Z,99.99
2016-09-16T09:14:33.643Z,99.99
2016-09-16T09:15:33.642Z,99.99
2016-09-16T09:16:33.653Z,99.99
2016-09-16T09:17:33.639Z,99.99
2016-09-16T09:18:33.648Z,99.99
2016-09-16T09:19:33.644Z,99.99
2016-09-16T09:20:33.654Z,99.99
2016-09-16T09:21:33.653Z,99.99
2016-09-16T09:22:33.667Z,99.99
2016-09-16T09:23:33.646Z,99.99
2016-09-16T09:24:33.660Z,99.99
2016-09-16T09:25:33.968Z,99.99
2016-09-16T09:26:33.657Z,99.99
2016-09-16T09:27:33.654Z,99.99
2016-09-16T09:28:33.653Z,99.99
2016-09-16T09:29:33.650Z,99.99
2016-09-16T09:30:33.659Z,99.99
2016-09-16T09:31:33.657Z,99.99
2016-09-16T09:32:33.662Z,99.99
2016-09-16T09:33:33.651Z,99.99
2016-09-16T09:34:33.656Z,99.99
2016-09-16T09:35:33.656Z,99.99
2016-09-16T09:36:33.665Z,99.99
2016-09-16T09:37:33.664Z,99.99
2016-09-16T09:38:33.671Z,99.99
2016-09-16T09:39:33.667Z,99.99
2016-09-16T09:40:33.662Z,99.99
2016-09-16T09:41:33.673Z,99.99
2016-09-16T09:42:33.675Z,99.99
2016-09-16T09:43:33.670Z,99.99
2016-09-16T09:44:33.665Z,99.99
2016-09-16T09:45:33.671Z,99.99
2016-09-16T09:46:33.673Z,99.99
2016-09-16T09:47:33.687Z,99.99
2016-09-16T09:48:33.678Z,99.99
2016-09-16T09:49:33.677Z,99.99
2016-09-16T09:50:33.672Z,99.99
2016-09-16T09:51:33.684Z,99.99
2016-09-16T09:52:33.678Z,99.99
2016-09-16T09:53:33.673Z,99.99
2016-09-16T09:54:33.687Z,99.99
2016-09-16T09:55:33.677Z,99.99
2016-09-16T09:56:33.996Z,99.99
2016-09-16T09:57:33.685Z,99.99
2016-09-16T09:58:33.688Z,99.99
2016-09-16T09:59:34.008Z,99.99
2016-09-16T10:00:33.687Z,99.99
2016-09-16T10:01:33.706Z,99.99
2016-09-16T10:02:33.694Z,99.99
2016-09-16T10:03:33.711Z,99.99
2016-09-16T10:04:33.686Z,99.99
2016-09-16T10:05:33.690Z,99.99
2016-09-16T10:06:33.691Z,99.99
2016-09-16T10:07:33.694Z,99.99
2016-09-16T10:08:33.695Z,99.99
2016-09-16T10:09:33.695Z,99.99
2016-09-16T10:10:33.709Z,99.99
2016-09-16T10:11:33.698Z,99.99
2016-09-16T10:12:33.708Z,99.99
2016-09-16T10:13:33.710Z,99.99
2016-09-16T10:14:33.706Z,99.99
2016-09-16T10:15:33.710Z,99.99
2016-09-16T10:16:33.719Z,99.99
2016-09-16T10:17:33.710Z,99.99
2016-09-16T10:18:33.719Z,99.99
2016-09-16T10:19:33.723Z,99.99
2016-09-16T10:20:33.714Z,99.99
2016-09-16T10:21:33.714Z,99.99
2016-09-16T10:22:33.713Z,99.99
2016-09-16T10:23:34.033Z,99.99
2016-09-16T10:24:33.730Z,99.99
2016-09-16T10:25:33.721Z,99.99
2016-09-16T10:26:33.721Z,99.99
2016-09-16T10:27:33.717Z,99.99
2016-09-16T10:28:33.734Z,99.99
2016-09-16T10:29:33.728Z,99.99
2016-09-16T10:30:33.729Z,99.99
2016-09-16T10:31:33.739Z,99.99
2016-09-16T10:32:33.730Z,99.99
2016-09-16T10:33:33.731Z,99.99
2016-09-16T10:34:33.737Z,99.99
2016-09-16T10:35:33.736Z,99.99
2016-09-16T10:36:33.738Z,99.99
2016-09-16T10:37:33.747Z,99.99
2016-09-16T10:38:33.745Z,99.99
2016-09-16T10:39:33.750Z,99.99
2016-09-16T10:40:33.743Z,99.99
2016-09-16T10:41:33.751Z,99.99
2016-09-16T10:42:33.742Z,99.99
2016-09-16T10:43:33.748Z,99.99
2016-09-16T10:44:33.749Z,99.99
2016-09-16T10:45:33.828Z,99.99
2016-09-16T10:46:33.756Z,99.99
2016-09-16T10:47:33.754Z,99.99
2016-09-16T10:48:33.758Z,99.99
2016-09-16T10:49:33.760Z,99.99
2016-09-16T10:50:33.757Z,99.99
2016-09-16T10:51:33.771Z,99.99
2016-09-16T10:52:33.763Z,99.99
2016-09-16T10:53:33.764Z,99.99
2016-09-16T10:54:33.776Z,99.99
2016-09-16T10:55:33.776Z,99.99
2016-09-16T10:56:33.779Z,99.99
2016-09-16T10:57:33.776Z,99.99
2016-09-16T10:58:33.776Z,99.99
2016-09-16T10:59:33.784Z,99.99
2016-09-16T11:00:33.783Z,99.99
2016-09-16T11:01:33.788Z,99.99
2016-09-16T11:02:33.784Z,99.99
2016-09-16T11:03:33.788Z,99.99
2016-09-16T11:04:33.786Z,99.99
2016-09-16T11:05:33.793Z,99.99
2016-09-16T11:06:33.846Z,99.99
2016-09-16T11:07:33.804Z,99.99
2016-09-16T11:08:33.796Z,99.99
2016-09-16T11:09:33.817Z,99.99
2016-09-16T11:10:33.818Z,99.99
2016-09-16T11:11:33.812Z,99.99
2016-09-16T11:12:33.811Z,99.99
2016-09-16T11:13:33.819Z,99.99
2016-09-16T11:14:33.813Z,99.99
2016-09-16T11:15:33.820Z,99.99
2016-09-16T11:16:34.142Z,99.99
2016-09-16T11:17:33.835Z,99.99
2016-09-16T11:18:33.841Z,99.99
2016-09-16T11:19:33.833Z,99.99
2016-09-16T11:20:33.828Z,99.99
2016-09-16T11:21:33.826Z,99.99
2016-09-16T11:22:33.829Z,99.99
2016-09-16T11:23:33.845Z,99.99
2016-09-16T11:24:33.837Z,99.99
2016-09-16T11:25:34.168Z,99.99
2016-09-16T11:26:33.843Z,99.99
2016-09-16T11:27:33.850Z,99.99
2016-09-16T11:28:33.841Z,99.99
2016-09-16T11:29:33.855Z,99.99
2016-09-16T11:30:33.861Z,99.99
2016-09-16T11:31:34.057Z,99.99
2016-09-16T11:32:33.849Z,99.99
2016-09-16T11:33:33.854Z,99.99
2016-09-16T11:34:33.850Z,99.99
2016-09-16T11:35:33.858Z,99.99
2016-09-16T11:36:33.859Z,99.99
2016-09-16T11:37:33.873Z,99.99
2016-09-16T11:38:33.887Z,99.99
2016-09-16T11:39:33.873Z,99.99
2016-09-16T11:40:33.864Z,99.99
2016-09-16T11:41:33.869Z,99.99
2016-09-16T11:42:33.875Z,99.99
2016-09-16T11:43:33.881Z,99.99
2016-09-16T11:44:33.877Z,99.99
2016-09-16T11:45:33.874Z,99.99
2016-09-16T11:46:33.871Z,99.99
2016-09-16T11:47:33.878Z,99.99
2016-09-16T11:48:33.877Z,99.99
2016-09-16T11:50:33.888Z,99.99
2016-09-16T11:51:33.880Z,99.99
2016-09-16T11:52:33.885Z,99.99
2016-09-16T11:53:33.893Z,99.99
2016-09-16T11:54:33.894Z,99.99
2016-09-16T11:55:33.897Z,99.99
2016-09-16T11:56:33.902Z,99.99
2016-09-16T11:57:33.912Z,99.99
2016-09-16T11:58:33.910Z,99.99
2016-09-16T11:59:33.894Z,99.99
2016-09-16T12:00:33.898Z,99.99
2016-09-16T12:01:33.906Z,99.99
2016-09-16T12:02:33.907Z,99.99
2016-09-16T12:03:33.917Z,99.99
2016-09-16T12:04:33.922Z,99.99
2016-09-16T12:05:33.910Z,99.99
2016-09-16T12:06:33.916Z,99.99
2016-09-16T12:07:33.917Z,99.99
2016-09-16T12:08:33.925Z,99.99
2016-09-16T12:09:33.924Z,99.99
2016-09-16T12:10:33.917Z,99.99
2016-09-16T12:11:33.921Z,99.99
2016-09-16T12:12:33.918Z,99.99
2016-09-16T12:13:33.927Z,99.99
2016-09-16T12:14:33.940Z,99.99
2016-09-16T12:15:33.939Z,99.99
2016-09-16T12:16:34.627Z,99.99
2016-09-16T12:17:33.943Z,99.99
2016-09-16T12:18:33.941Z,99.99
2016-09-16T12:19:33.934Z,99.99
2016-09-16T12:20:33.942Z,99.99
2016-09-16T12:21:33.933Z,99.99
2016-09-16T12:22:33.944Z,99.99
2016-09-16T12:23:33.933Z,99.99
2016-09-16T12:24:33.940Z,99.99
2016-09-16T12:25:33.939Z,99.99
2016-09-16T12:26:33.943Z,99.99
2016-09-16T12:27:33.955Z,99.99
2016-09-16T12:28:33.963Z,99.99
2016-09-16T12:29:33.952Z,99.99
2016-09-16T12:30:33.957Z,99.99
2016-09-16T12:31:33.954Z,99.99
2016-09-16T12:32:33.965Z,99.99
2016-09-16T12:33:33.954Z,99.99
2016-09-16T12:34:33.965Z,99.99
2016-09-16T12:35:33.950Z,99.99
2016-09-16T12:36:33.953Z,99.99
2016-09-16T12:37:33.954Z,99.99
2016-09-16T12:38:33.957Z,99.99
2016-09-16T12:39:33.955Z,99.99
2016-09-16T12:40:33.958Z,99.99
2016-09-16T12:41:33.958Z,99.99
2016-09-16T12:42:33.968Z,99.99
2016-09-16T12:43:33.965Z,99.99
2016-09-16T12:44:33.975Z,99.99
2016-09-16T12:45:33.966Z,99.99
2016-09-16T12:46:34.285Z,99.99
2016-09-16T12:47:33.972Z,99.99
2016-09-16T12:48:33.985Z,99.99
2016-09-16T12:49:33.979Z,99.99
2016-09-16T12:50:33.985Z,99.99
2016-09-16T12:51:33.998Z,99.99
2016-09-16T12:52:33.988Z,99.99
2016-09-16T12:53:33.995Z,99.99
2016-09-16T12:54:33.999Z,99.99
2016-09-16T12:55:33.994Z,99.99
2016-09-16T12:56:34.011Z,99.99
2016-09-16T12:57:33.987Z,99.99
2016-09-16T12:58:33.987Z,99.99
2016-09-16T12:59:33.992Z,99.99
2016-09-16T13:00:34.310Z,99.99
2016-09-16T13:01:33.999Z,99.99
2016-09-16T13:02:34.009Z,99.99
2016-09-16T13:03:34.008Z,99.99
2016-09-16T13:04:34.008Z,99.99
2016-09-16T13:05:33.998Z,99.99
2016-09-16T13:06:34.003Z,99.99
2016-09-16T13:07:34.010Z,99.99
2016-09-16T13:08:34.013Z,99.99
2016-09-16T13:09:34.008Z,99.99
2016-09-16T13:10:34.014Z,99.99
2016-09-16T13:11:34.015Z,99.99
2016-09-16T13:12:34.021Z,99.99
2016-09-16T13:13:34.014Z,99.99
2016-09-16T13:14:34.027Z,99.99